createdAt,value
2023-05-19T05:13:03.493Z,0.00
2023-05-19T05:23:17.868Z,8.27
2023-05-19T05:33:27.939Z,9.03
2023-05-19T05:43:37.796Z,9.40
2023-05-19T05:53:47.724Z,9.70
2023-05-19T06:03:57.355Z,9.92
2023-05-19T06:14:08.394Z,10.09
2023-05-19T06:24:18.592Z,10.27
2023-05-19T06:34:28.151Z,10.64
2023-05-19T06:44:37.909Z,11.09
2023-05-19T06:54:47.658Z,11.09
2023-05-19T07:04:57.447Z,11.42
2023-05-19T07:15:07.338Z,11.70
2023-05-19T07:25:17.320Z,12.31
2023-05-19T07:35:27.217Z,12.85
2023-05-19T07:45:37.292Z,14.66
2023-05-19T07:55:48.933Z,14.66
2023-05-19T08:05:59.397Z,18.16
2023-05-19T08:16:10.169Z,18.16
2023-05-19T08:26:20.187Z,19.15
2023-05-19T08:36:30.519Z,19.48
2023-05-19T08:46:41.073Z,19.48
2023-05-19T08:56:50.487Z,19.28
2023-05-19T09:06:59.032Z,19.28
2023-05-19T09:17:08.620Z,18.51
2023-05-19T09:27:18.090Z,18.18
2023-05-19T09:37:28.252Z,18.60
2023-05-19T09:47:39.119Z,19.86
2023-05-19T09:57:49.148Z,19.05
2023-05-19T10:07:58.600Z,19.05
2023-05-19T10:18:08.616Z,18.98
2023-05-19T10:28:18.463Z,18.77
2023-05-19T10:38:28.742Z,18.56
2023-05-19T10:48:38.817Z,18.56
2023-05-19T10:58:49.693Z,18.37
2023-05-19T11:09:00.253Z,18.37
2023-05-19T11:19:09.873Z,18.23
2023-05-19T11:29:20.440Z,18.38
2023-05-19T11:39:33.196Z,18.68
2023-05-19T11:49:43.446Z,18.25
2023-05-19T11:59:53.930Z,18.30
2023-05-19T12:10:04.755Z,18.38
2023-05-19T12:20:14.608Z,18.73
2023-05-19T12:30:25.027Z,18.51
2023-05-19T12:40:34.968Z,18.51
2023-05-19T12:50:45.292Z,18.14
2023-05-19T13:00:55.516Z,19.21
2023-05-19T13:11:04.600Z,19.27
2023-05-19T13:21:14.820Z,18.75
2023-05-19T13:31:26.078Z,19.85
2023-05-19T13:41:36.038Z,19.85
2023-05-19T13:51:45.282Z,20.52
2023-05-19T14:01:55.045Z,19.82
2023-05-19T14:12:05.717Z,19.82
2023-05-19T14:22:16.141Z,19.72
2023-05-19T14:32:26.351Z,19.67
2023-05-19T14:42:37.949Z,19.17
2023-05-19T14:52:48.794Z,19.17
2023-05-19T15:02:59.124Z,18.95
2023-05-19T15:13:08.537Z,18.80
2023-05-19T15:23:18.161Z,18.43
2023-05-19T15:33:27.913Z,18.43
2023-05-19T15:43:37.641Z,18.37
2023-05-19T15:53:47.328Z,17.75
2023-05-19T16:03:57.197Z,17.75
2023-05-19T16:14:08.296Z,17.75
2023-05-19T16:24:19.753Z,17.72
2023-05-19T16:34:30.654Z,17.54
2023-05-19T16:44:40.771Z,17.56
2023-05-19T16:54:51.494Z,17.33
2023-05-19T17:05:01.488Z,17.33
2023-05-19T17:15:11.060Z,17.41
2023-05-19T17:25:20.712Z,17.12
2023-05-19T17:35:30.608Z,17.01
2023-05-19T17:45:40.128Z,16.81
2023-05-19T17:55:50.955Z,16.64
2023-05-19T18:06:00.928Z,16.43
2023-05-19T18:16:11.718Z,16.01
2023-05-19T18:26:22.866Z,16.01
2023-05-19T18:36:33.238Z,15.87
2023-05-19T18:46:42.845Z,15.70
2023-05-19T18:56:53.539Z,15.24
2023-05-19T19:07:04.352Z,15.24
2023-05-19T19:17:13.825Z,15.02
2023-05-19T19:27:23.222Z,14.87
2023-05-19T19:37:33.233Z,14.49
2023-05-19T19:47:43.291Z,14.24
2023-05-19T19:57:53.090Z,14.24
2023-05-19T20:08:02.543Z,14.16
2023-05-19T20:18:13.282Z,14.11
2023-05-19T20:28:24.743Z,13.96
2023-05-19T20:38:34.856Z,13.88
2023-05-19T20:48:44.990Z,13.72
2023-05-19T20:58:54.293Z,13.66
2023-05-19T21:09:04.685Z,13.60
2023-05-19T21:19:15.399Z,13.38
2023-05-19T21:29:53.964Z,13.15
2023-05-19T21:40:05.443Z,13.15
2023-05-19T21:50:16.734Z,12.93
2023-05-19T22:00:27.353Z,12.79
2023-05-19T22:10:37.280Z,12.61
2023-05-19T22:20:48.914Z,12.52
2023-05-19T22:30:58.791Z,12.18
2023-05-19T22:41:09.777Z,12.18
2023-05-19T22:51:20.472Z,12.09
2023-05-19T23:01:31.189Z,11.85
2023-05-19T23:11:40.758Z,11.49
2023-05-19T23:21:51.583Z,11.49
2023-05-19T23:32:02.339Z,11.49
2023-05-19T23:42:12.950Z,11.49
2023-05-19T23:52:23.532Z,11.46
